createdAt,value
2019-05-20T00:00:43.814Z,14.00
2019-05-20T00:03:12.357Z,14.00
2019-05-20T00:05:41.117Z,14.00
2019-05-20T00:08:09.724Z,14.00
2019-05-20T00:10:38.264Z,14.00
2019-05-20T00:13:26.048Z,13.90
2019-05-20T00:15:54.605Z,13.90
2019-05-20T00:18:23.148Z,13.90
2019-05-20T00:20:57.495Z,13.90
2019-05-20T00:23:26.932Z,13.90
2019-05-20T00:25:55.398Z,13.90
2019-05-20T00:28:23.840Z,13.90
2019-05-20T00:30:52.353Z,13.90
2019-05-20T00:33:20.848Z,13.80
2019-05-20T00:35:49.292Z,13.80
2019-05-20T00:38:17.828Z,13.80
2019-05-20T00:40:46.330Z,13.80
2019-05-20T00:43:14.854Z,13.80
2019-05-20T00:45:43.359Z,13.80
2019-05-20T00:48:11.830Z,13.80
2019-05-20T00:50:40.272Z,13.80
2019-05-20T00:53:08.866Z,13.70
2019-05-20T00:55:38.919Z,13.70
2019-05-20T00:58:07.458Z,13.70
2019-05-20T01:00:36.544Z,13.70
2019-05-20T01:03:05.207Z,13.70
2019-05-20T01:05:33.665Z,13.70
2019-05-20T01:08:02.132Z,13.70
2019-05-20T01:10:30.579Z,13.70
2019-05-20T01:12:59.167Z,13.60
2019-05-20T01:15:27.630Z,13.60
2019-05-20T01:17:56.155Z,13.60
2019-05-20T01:20:24.631Z,13.60
2019-05-20T01:22:53.077Z,13.50
2019-05-20T01:25:21.687Z,13.50
2019-05-20T01:27:50.173Z,13.40
2019-05-20T01:30:20.660Z,13.40
2019-05-20T01:32:49.191Z,13.40
2019-05-20T01:35:17.712Z,13.30
2019-05-20T01:37:46.226Z,13.30
2019-05-20T01:40:15.216Z,13.30
2019-05-20T01:42:43.851Z,13.30
2019-05-20T01:45:12.688Z,13.30
2019-05-20T01:48:00.479Z,13.40
2019-05-20T01:50:28.941Z,13.30
2019-05-20T01:52:57.463Z,13.30
2019-05-20T01:55:25.904Z,13.30
2019-05-20T01:57:54.414Z,13.30
2019-05-20T02:00:22.943Z,13.30
2019-05-20T02:02:51.386Z,13.30
2019-05-20T02:05:39.188Z,13.30
2019-05-20T02:08:07.628Z,13.20
2019-05-20T02:10:36.092Z,13.20
2019-05-20T02:13:25.516Z,13.20
2019-05-20T02:15:58.804Z,13.30
2019-05-20T02:18:27.248Z,13.30
2019-05-20T02:20:55.707Z,13.30
2019-05-20T02:23:24.423Z,13.40
2019-05-20T02:25:52.890Z,13.40
2019-05-20T02:28:21.359Z,13.40
2019-05-20T02:31:09.156Z,13.40
2019-05-20T02:33:50.786Z,13.50
2019-05-20T02:36:07.785Z,13.40
2019-05-20T02:38:36.233Z,13.50
2019-05-20T02:41:04.916Z,13.50
2019-05-20T02:43:33.380Z,13.50
2019-05-20T02:46:01.983Z,13.50
2019-05-20T02:48:30.519Z,13.60
2019-05-20T02:50:59.040Z,13.60
2019-05-20T02:53:27.484Z,13.70
2019-05-20T02:55:55.949Z,13.70
2019-05-20T02:58:24.395Z,13.60
2019-05-20T03:00:52.855Z,13.60
2019-05-20T03:03:21.366Z,13.70
2019-05-20T03:05:49.832Z,13.70
2019-05-20T03:08:18.277Z,13.70
2019-05-20T03:10:46.732Z,13.70
2019-05-20T03:13:15.179Z,13.80
2019-05-20T03:15:43.721Z,13.80
2019-05-20T03:18:12.368Z,13.80
2019-05-20T03:20:40.892Z,13.70
2019-05-20T03:23:09.329Z,13.80
2019-05-20T03:25:37.791Z,13.80
2019-05-20T03:28:06.325Z,13.80
2019-05-20T03:30:34.815Z,13.90
2019-05-20T03:33:03.318Z,13.90
2019-05-20T03:35:31.804Z,13.90
2019-05-20T03:38:00.274Z,13.90
2019-05-20T03:40:28.718Z,13.90
2019-05-20T03:42:57.340Z,14.00
2019-05-20T03:45:25.866Z,14.00
2019-05-20T03:47:54.537Z,14.00
2019-05-20T03:50:22.975Z,14.00
2019-05-20T03:52:51.514Z,14.00
2019-05-20T03:55:20.024Z,14.00
2019-05-20T03:57:48.492Z,14.00
2019-05-20T04:00:20.995Z,14.00
2019-05-20T04:02:50.493Z,14.00
2019-05-20T04:05:19.024Z,14.00
2019-05-20T04:08:06.869Z,14.00
2019-05-20T04:10:35.405Z,14.00
2019-05-20T04:13:03.942Z,14.10
2019-05-20T04:15:32.608Z,14.10
2019-05-20T04:18:02.143Z,14.00
2019-05-20T04:20:31.643Z,14.00
2019-05-20T04:23:00.176Z,14.00
2019-05-20T04:25:29.276Z,14.10
2019-05-20T04:27:57.839Z,14.10
2019-05-20T04:30:26.658Z,14.10
2019-05-20T04:32:55.221Z,14.10
2019-05-20T04:35:23.798Z,14.10
2019-05-20T04:37:52.369Z,14.20
2019-05-20T04:40:20.872Z,14.20
2019-05-20T04:42:49.334Z,14.20
2019-05-20T04:45:18.246Z,14.30
2019-05-20T04:47:46.710Z,14.30
2019-05-20T04:50:15.308Z,14.30
2019-05-20T04:52:43.817Z,14.30
2019-05-20T04:55:12.400Z,14.30
2019-05-20T04:57:40.937Z,14.30
2019-05-20T05:00:10.027Z,14.30
2019-05-20T05:02:38.488Z,14.30
2019-05-20T05:05:07.672Z,14.30
2019-05-20T05:07:36.225Z,14.30
2019-05-20T05:10:09.352Z,14.30
2019-05-20T05:12:38.143Z,14.30
2019-05-20T05:15:08.619Z,14.20
2019-05-20T05:17:37.221Z,14.20
2019-05-20T05:20:06.835Z,14.20
2019-05-20T05:22:35.573Z,14.30
2019-05-20T05:25:07.376Z,14.30
2019-05-20T05:27:35.941Z,14.30
2019-05-20T05:30:05.910Z,14.30
2019-05-20T05:32:43.463Z,14.40
2019-05-20T05:35:17.440Z,14.40
2019-05-20T05:37:46.081Z,14.40
2019-05-20T05:40:15.350Z,14.30
2019-05-20T05:42:43.938Z,14.40
2019-05-20T05:45:14.715Z,14.30
2019-05-20T05:47:43.181Z,14.30
2019-05-20T05:50:12.096Z,14.30
2019-05-20T05:52:59.870Z,14.30
2019-05-20T05:55:28.330Z,14.40
2019-05-20T05:57:56.775Z,14.40
2019-05-20T06:00:25.371Z,14.40
2019-05-20T06:02:53.883Z,14.40
2019-05-20T06:05:22.352Z,14.50
2019-05-20T06:07:50.930Z,14.50
2019-05-20T06:10:19.827Z,14.60
2019-05-20T06:12:48.345Z,14.60
2019-05-20T06:15:17.332Z,14.60
2019-05-20T06:17:45.776Z,14.70
2019-05-20T06:20:14.788Z,14.70
2019-05-20T06:22:43.367Z,14.60
2019-05-20T06:25:12.365Z,14.50
2019-05-20T06:27:40.909Z,14.50
2019-05-20T06:30:11.580Z,14.40
2019-05-20T06:32:40.732Z,14.40
2019-05-20T06:35:10.077Z,14.40
2019-05-20T06:37:43.543Z,14.50
2019-05-20T06:40:12.228Z,14.50
2019-05-20T06:42:40.688Z,14.50
2019-05-20T06:45:09.539Z,14.50
2019-05-20T06:47:38.041Z,14.50
2019-05-20T06:50:09.841Z,14.60
2019-05-20T06:52:38.380Z,14.70
2019-05-20T06:55:08.569Z,14.70
2019-05-20T06:57:37.105Z,14.70
2019-05-20T07:00:07.374Z,14.70
2019-05-20T07:02:36.152Z,14.70
2019-05-20T07:05:06.984Z,14.70
2019-05-20T07:07:35.431Z,14.70
2019-05-20T07:10:07.922Z,14.80
2019-05-20T07:12:41.224Z,14.80
2019-05-20T07:15:07.723Z,14.70
2019-05-20T07:17:36.217Z,14.70
2019-05-20T07:20:07.160Z,14.70
2019-05-20T07:22:53.915Z,14.60
2019-05-20T07:25:08.770Z,14.60
2019-05-20T07:27:37.401Z,14.60
2019-05-20T07:30:07.754Z,14.60
2019-05-20T07:32:36.417Z,14.70
2019-05-20T07:35:28.668Z,14.70
2019-05-20T07:38:05.312Z,14.70
2019-05-20T07:40:34.037Z,14.80
2019-05-20T07:43:03.226Z,14.80
2019-05-20T07:45:34.684Z,15.00
2019-05-20T07:48:03.946Z,15.10
2019-05-20T07:50:34.122Z,15.10
2019-05-20T07:53:23.480Z,15.00
2019-05-20T07:56:13.184Z,15.10
2019-05-20T07:58:44.385Z,15.20
2019-05-20T08:01:13.153Z,15.20
2019-05-20T08:03:42.658Z,15.10
2019-05-20T08:06:11.464Z,15.10
2019-05-20T08:08:40.029Z,15.10
2019-05-20T08:11:08.549Z,15.10
2019-05-20T08:13:37.113Z,15.10
2019-05-20T08:16:05.626Z,15.10
2019-05-20T08:18:34.332Z,15.10
2019-05-20T08:21:02.884Z,15.10
2019-05-20T08:23:31.511Z,15.10
2019-05-20T08:26:00.088Z,15.10
2019-05-20T08:28:28.673Z,15.00
2019-05-20T08:30:57.175Z,14.90
2019-05-20T08:33:25.862Z,14.90
2019-05-20T08:35:54.329Z,14.80
2019-05-20T08:38:22.835Z,14.80
2019-05-20T08:40:51.379Z,14.70
2019-05-20T08:43:19.861Z,14.80
2019-05-20T08:45:48.356Z,14.90
2019-05-20T08:48:16.893Z,14.90
2019-05-20T08:50:45.493Z,15.00
2019-05-20T08:53:13.964Z,15.00
2019-05-20T08:55:42.499Z,14.90
2019-05-20T08:58:11.184Z,14.80
2019-05-20T09:00:39.769Z,14.80
2019-05-20T09:03:08.266Z,14.70
2019-05-20T09:05:36.805Z,14.80
2019-05-20T09:08:05.256Z,14.70
2019-05-20T09:10:33.924Z,14.70
2019-05-20T09:13:02.438Z,14.70
2019-05-20T09:15:31.048Z,14.70
2019-05-20T09:17:59.799Z,14.70
2019-05-20T09:20:28.343Z,14.80
2019-05-20T09:22:56.807Z,14.90
2019-05-20T09:25:32.642Z,14.90
2019-05-20T09:28:01.923Z,15.00
2019-05-20T09:30:30.453Z,15.10
2019-05-20T09:32:59.165Z,15.20
2019-05-20T09:35:47.066Z,15.20
2019-05-20T09:38:20.941Z,15.20
2019-05-20T09:40:48.274Z,15.20
2019-05-20T09:43:16.902Z,15.20
2019-05-20T09:45:45.847Z,15.20
2019-05-20T09:48:14.564Z,15.30
2019-05-20T09:50:43.092Z,15.20
2019-05-20T09:53:11.676Z,15.10
2019-05-20T09:55:40.226Z,15.10
2019-05-20T09:58:09.016Z,15.10
2019-05-20T10:00:37.595Z,15.20
2019-05-20T10:03:07.248Z,15.20
2019-05-20T10:05:37.432Z,15.20
2019-05-20T10:08:06.571Z,15.20
2019-05-20T10:10:35.232Z,15.00
2019-05-20T10:13:03.917Z,14.90
2019-05-20T10:15:32.694Z,15.00
2019-05-20T10:18:01.152Z,14.90
2019-05-20T10:20:29.736Z,14.90
2019-05-20T10:22:58.286Z,15.00
2019-05-20T10:25:26.863Z,15.00
2019-05-20T10:27:57.770Z,15.20
2019-05-20T10:30:25.874Z,15.30
2019-05-20T10:32:54.416Z,15.40
2019-05-20T10:35:23.041Z,15.40
2019-05-20T10:37:51.729Z,15.30
2019-05-20T10:40:20.634Z,15.20
2019-05-20T10:42:49.229Z,15.30
2019-05-20T10:45:18.657Z,15.40
2019-05-20T10:47:47.355Z,15.50
2019-05-20T10:50:16.087Z,15.60
2019-05-20T10:52:44.544Z,15.60
2019-05-20T10:55:13.073Z,15.50
2019-05-20T10:57:41.560Z,15.50
2019-05-20T11:00:11.306Z,15.50
2019-05-20T11:02:39.767Z,15.70
2019-05-20T11:05:11.582Z,16.00
2019-05-20T11:07:46.598Z,15.90
2019-05-20T11:10:15.515Z,15.90
2019-05-20T11:12:44.115Z,16.00
2019-05-20T11:15:12.718Z,15.90
2019-05-20T11:17:41.204Z,15.80
2019-05-20T11:20:10.266Z,15.70
2019-05-20T11:22:38.755Z,15.70
2019-05-20T11:25:07.722Z,15.70
2019-05-20T11:27:36.222Z,15.60
2019-05-20T11:30:07.579Z,15.60
2019-05-20T11:32:36.110Z,15.60
2019-05-20T11:35:06.568Z,15.60
2019-05-20T11:37:35.197Z,15.60
2019-05-20T11:40:08.166Z,15.50
2019-05-20T11:42:37.177Z,15.50
2019-05-20T11:45:08.297Z,15.60
2019-05-20T11:47:37.874Z,15.50
2019-05-20T11:50:07.574Z,15.50
2019-05-20T11:52:36.140Z,15.50
2019-05-20T11:55:08.965Z,15.70
2019-05-20T11:57:37.660Z,15.70
2019-05-20T12:00:08.504Z,15.70
2019-05-20T12:02:36.943Z,15.70
2019-05-20T12:05:07.440Z,15.80
2019-05-20T12:07:35.881Z,15.80
2019-05-20T12:10:06.676Z,15.90
2019-05-20T12:12:35.202Z,15.90
2019-05-20T12:15:06.489Z,16.00
2019-05-20T12:17:35.608Z,16.00
2019-05-20T12:20:07.717Z,16.00
2019-05-20T12:22:37.295Z,16.00
2019-05-20T12:25:07.328Z,15.90
2019-05-20T12:27:35.895Z,15.90
2019-05-20T12:30:05.407Z,15.80
2019-05-20T12:32:33.887Z,15.70
2019-05-20T12:35:02.408Z,15.80
2019-05-20T12:37:30.931Z,15.90
2019-05-20T12:40:06.932Z,16.00
2019-05-20T12:42:29.648Z,16.00
2019-05-20T12:44:58.161Z,16.10
2019-05-20T12:47:33.770Z,16.20
2019-05-20T12:50:02.351Z,16.30
2019-05-20T12:52:30.824Z,16.30
2019-05-20T12:55:08.004Z,16.40
2019-05-20T12:57:29.447Z,16.40
2019-05-20T12:59:57.922Z,16.50
2019-05-20T13:02:45.766Z,16.50
2019-05-20T13:05:15.169Z,16.60
2019-05-20T13:08:03.244Z,16.70
2019-05-20T13:10:32.605Z,16.70
2019-05-20T13:13:01.251Z,16.60
2019-05-20T13:15:29.784Z,16.50
2019-05-20T13:17:58.330Z,16.60
2019-05-20T13:20:26.781Z,16.50
2019-05-20T13:22:55.281Z,16.40
2019-05-20T13:25:23.744Z,16.30
2019-05-20T13:27:52.187Z,16.30
2019-05-20T13:30:21.144Z,16.30
2019-05-20T13:32:49.614Z,16.20
2019-05-20T13:35:18.768Z,16.20
2019-05-20T13:37:47.288Z,16.20
2019-05-20T13:40:17.162Z,16.20
2019-05-20T13:42:45.682Z,16.40
2019-05-20T13:45:14.744Z,16.40
2019-05-20T13:47:43.183Z,16.30
2019-05-20T13:50:12.106Z,16.30
2019-05-20T13:52:40.662Z,16.30
2019-05-20T13:55:09.962Z,16.40
2019-05-20T13:57:38.655Z,16.40
2019-05-20T14:00:07.882Z,16.40
2019-05-20T14:02:36.628Z,16.50
2019-05-20T14:05:06.669Z,16.50
2019-05-20T14:07:35.282Z,16.60
2019-05-20T14:10:06.101Z,16.50
2019-05-20T14:12:34.669Z,16.60
2019-05-20T14:15:03.590Z,16.60
2019-05-20T14:17:32.145Z,16.60
2019-05-20T14:20:00.663Z,16.60
2019-05-20T14:22:29.386Z,16.70
2019-05-20T14:24:57.949Z,16.70
2019-05-20T14:27:26.571Z,16.70
2019-05-20T14:29:55.190Z,16.60
2019-05-20T14:32:23.793Z,16.70
2019-05-20T14:34:52.346Z,16.60
2019-05-20T14:37:20.952Z,16.60
2019-05-20T14:39:49.593Z,16.50
2019-05-20T14:42:18.202Z,16.50
2019-05-20T14:44:46.896Z,16.50
2019-05-20T14:47:15.595Z,16.40
2019-05-20T14:49:44.217Z,16.40
2019-05-20T14:52:12.648Z,16.40
2019-05-20T14:54:41.184Z,16.50
2019-05-20T14:57:09.649Z,16.50
2019-05-20T14:59:38.149Z,16.50
2019-05-20T15:02:06.619Z,16.50
2019-05-20T15:04:35.058Z,16.30
2019-05-20T15:07:03.698Z,16.30
2019-05-20T15:09:32.241Z,16.20
2019-05-20T15:12:01.010Z,16.20
2019-05-20T15:14:29.530Z,16.10
2019-05-20T15:16:58.160Z,16.10
2019-05-20T15:19:26.743Z,16.30
2019-05-20T15:21:55.341Z,16.30
2019-05-20T15:24:24.019Z,16.40
2019-05-20T15:26:52.529Z,16.30
2019-05-20T15:29:28.053Z,16.30
2019-05-20T15:31:51.652Z,16.40
2019-05-20T15:34:20.140Z,16.50
2019-05-20T15:36:48.767Z,16.50
2019-05-20T15:39:17.749Z,16.50
2019-05-20T15:41:46.330Z,16.50
2019-05-20T15:44:14.972Z,16.50
2019-05-20T15:46:43.432Z,16.50
2019-05-20T15:49:11.949Z,16.70
2019-05-20T15:51:40.395Z,16.70
2019-05-20T15:54:08.908Z,16.70
2019-05-20T15:56:37.389Z,16.70
2019-05-20T15:59:05.956Z,16.60
2019-05-20T16:01:34.457Z,16.60
2019-05-20T16:04:02.964Z,16.70
2019-05-20T16:06:31.405Z,16.60
2019-05-20T16:08:59.860Z,16.60
2019-05-20T16:11:28.423Z,16.60
2019-05-20T16:13:56.968Z,16.70
2019-05-20T16:16:25.472Z,16.50
2019-05-20T16:18:53.915Z,16.50
2019-05-20T16:21:24.436Z,16.60
2019-05-20T16:23:52.905Z,16.70
2019-05-20T16:26:21.368Z,16.60
2019-05-20T16:28:49.956Z,16.50
2019-05-20T16:31:18.487Z,16.50
2019-05-20T16:33:46.987Z,16.50
2019-05-20T16:36:15.519Z,16.40
2019-05-20T16:38:43.979Z,16.30
2019-05-20T16:41:12.580Z,16.40
2019-05-20T16:43:41.112Z,16.40
2019-05-20T16:46:09.792Z,16.40
2019-05-20T16:48:38.304Z,16.40
2019-05-20T16:51:06.814Z,16.40
2019-05-20T16:53:35.277Z,16.40
2019-05-20T16:56:03.972Z,16.30
2019-05-20T16:58:32.515Z,16.30
2019-05-20T17:01:00.971Z,16.30
2019-05-20T17:03:29.499Z,16.30
2019-05-20T17:05:57.946Z,16.30
2019-05-20T17:08:26.491Z,16.20
2019-05-20T17:10:54.962Z,16.20
2019-05-20T17:13:23.581Z,16.20
2019-05-20T17:15:52.134Z,16.10
2019-05-20T17:18:20.665Z,16.10
2019-05-20T17:20:49.276Z,16.10
2019-05-20T17:23:17.748Z,16.00
2019-05-20T17:25:46.191Z,16.10
2019-05-20T17:28:14.732Z,16.00
2019-05-20T17:30:45.806Z,16.00
2019-05-20T17:33:13.421Z,16.10
2019-05-20T17:35:41.892Z,16.00
2019-05-20T17:38:10.444Z,16.00
2019-05-20T17:40:39.262Z,16.00
2019-05-20T17:43:07.849Z,16.00
2019-05-20T17:45:36.395Z,16.00
2019-05-20T17:48:05.315Z,16.00
2019-05-20T17:50:34.205Z,15.90
2019-05-20T17:53:02.706Z,16.00
2019-05-20T17:55:31.340Z,16.00
2019-05-20T17:57:59.930Z,15.90
2019-05-20T18:00:28.461Z,15.90
2019-05-20T18:02:56.913Z,15.90
2019-05-20T18:05:25.528Z,15.90
2019-05-20T18:07:54.047Z,15.90
2019-05-20T18:10:24.153Z,15.90
2019-05-20T18:12:52.608Z,15.90
2019-05-20T18:15:21.241Z,15.90
2019-05-20T18:17:49.788Z,15.90
2019-05-20T18:20:18.576Z,15.90
2019-05-20T18:22:47.094Z,15.90
2019-05-20T18:25:15.869Z,15.90
2019-05-20T18:27:44.355Z,15.80
2019-05-20T18:30:13.945Z,15.70
2019-05-20T18:32:42.412Z,15.70
2019-05-20T18:35:11.299Z,15.70
2019-05-20T18:37:39.739Z,15.70
2019-05-20T18:40:14.430Z,15.70
2019-05-20T18:42:39.963Z,15.70
2019-05-20T18:45:09.511Z,15.70
2019-05-20T18:47:37.989Z,15.60
2019-05-20T18:50:10.138Z,15.60
2019-05-20T18:52:39.535Z,15.70
2019-05-20T18:55:08.354Z,15.60
2019-05-20T18:57:36.980Z,15.60
2019-05-20T19:00:10.295Z,15.60
2019-05-20T19:02:38.875Z,15.60
2019-05-20T19:05:07.875Z,15.60
2019-05-20T19:07:36.496Z,15.60
2019-05-20T19:10:06.143Z,15.50
2019-05-20T19:12:34.682Z,15.60
2019-05-20T19:15:04.735Z,15.60
2019-05-20T19:17:33.250Z,15.60
2019-05-20T19:20:01.768Z,15.60
2019-05-20T19:22:30.273Z,15.50
2019-05-20T19:24:58.720Z,15.50
2019-05-20T19:27:27.206Z,15.50
2019-05-20T19:29:55.794Z,15.50
2019-05-20T19:32:24.511Z,15.50
2019-05-20T19:34:53.027Z,15.50
2019-05-20T19:37:21.565Z,15.50
2019-05-20T19:39:50.021Z,15.50
2019-05-20T19:42:18.650Z,15.40
2019-05-20T19:44:47.212Z,15.40
2019-05-20T19:47:15.669Z,15.40
2019-05-20T19:49:44.209Z,15.40
2019-05-20T19:52:12.660Z,15.40
2019-05-20T19:54:41.208Z,15.30
2019-05-20T19:57:09.733Z,15.40
2019-05-20T19:59:38.290Z,15.40
2019-05-20T20:02:17.051Z,15.40
2019-05-20T20:04:37.221Z,15.40
2019-05-20T20:07:05.662Z,15.40
2019-05-20T20:09:37.028Z,15.40
2019-05-20T20:12:05.611Z,15.40
2019-05-20T20:14:34.100Z,15.40
2019-05-20T20:17:02.683Z,15.40
2019-05-20T20:19:31.291Z,15.40
2019-05-20T20:21:59.754Z,15.40
2019-05-20T20:24:28.508Z,15.40
2019-05-20T20:26:57.060Z,15.40
2019-05-20T20:29:25.739Z,15.40
2019-05-20T20:31:54.344Z,15.40
2019-05-20T20:34:23.049Z,15.40
2019-05-20T20:36:51.600Z,15.30
2019-05-20T20:39:21.420Z,15.40
2019-05-20T20:41:50.115Z,15.40
2019-05-20T20:44:18.560Z,15.30
2019-05-20T20:46:47.101Z,15.20
2019-05-20T20:49:15.609Z,15.30
2019-05-20T20:51:44.175Z,15.20
2019-05-20T20:54:12.627Z,15.20
2019-05-20T20:56:41.094Z,15.20
2019-05-20T20:59:09.612Z,15.20
2019-05-20T21:01:38.172Z,15.10
2019-05-20T21:04:07.556Z,15.10
2019-05-20T21:06:36.087Z,15.10
2019-05-20T21:09:06.536Z,15.10
2019-05-20T21:11:35.012Z,15.20
2019-05-20T21:14:03.557Z,15.20
2019-05-20T21:16:32.059Z,15.20
2019-05-20T21:19:00.729Z,15.10
2019-05-20T21:21:29.241Z,15.10
2019-05-20T21:23:57.743Z,15.10
2019-05-20T21:26:26.184Z,15.00
2019-05-20T21:28:54.666Z,14.90
2019-05-20T21:31:23.173Z,14.80
2019-05-20T21:33:51.768Z,14.70
2019-05-20T21:36:20.304Z,14.70
2019-05-20T21:38:48.817Z,14.60
2019-05-20T21:41:17.378Z,14.60
2019-05-20T21:43:45.827Z,14.60
2019-05-20T21:46:15.271Z,14.50
2019-05-20T21:48:43.786Z,14.50
2019-05-20T21:51:12.250Z,14.60
2019-05-20T21:53:40.713Z,14.60
2019-05-20T21:56:09.164Z,14.60
2019-05-20T21:58:37.604Z,14.50
2019-05-20T22:01:06.060Z,14.50
2019-05-20T22:03:34.528Z,14.50
2019-05-20T22:06:03.131Z,14.40
2019-05-20T22:08:32.492Z,14.40
2019-05-20T22:11:01.003Z,14.30
2019-05-20T22:13:29.581Z,14.20
2019-05-20T22:15:58.039Z,14.20
2019-05-20T22:18:27.575Z,14.30
2019-05-20T22:20:57.781Z,14.30
2019-05-20T22:23:36.756Z,14.30
2019-05-20T22:26:24.620Z,14.10
2019-05-20T22:28:53.143Z,14.10
2019-05-20T22:31:21.630Z,14.10
2019-05-20T22:33:50.088Z,14.00
2019-05-20T22:36:18.596Z,14.10
2019-05-20T22:38:47.057Z,14.10
2019-05-20T22:41:15.592Z,14.00
2019-05-20T22:43:44.092Z,14.10
2019-05-20T22:46:12.554Z,14.10
2019-05-20T22:48:41.030Z,14.00
2019-05-20T22:51:09.491Z,14.00
2019-05-20T22:53:37.976Z,13.90
2019-05-20T22:56:06.444Z,13.90
2019-05-20T22:58:38.421Z,14.00
2019-05-20T23:01:05.212Z,13.90
2019-05-20T23:03:33.679Z,14.00
2019-05-20T23:06:02.215Z,13.90
2019-05-20T23:08:30.662Z,13.90
2019-05-20T23:10:59.159Z,13.90
2019-05-20T23:13:27.672Z,13.90
2019-05-20T23:15:56.227Z,13.80
2019-05-20T23:18:24.663Z,13.80
2019-05-20T23:20:53.115Z,13.80
2019-05-20T23:23:21.711Z,13.80
2019-05-20T23:26:09.517Z,13.80
2019-05-20T23:28:37.993Z,13.80
2019-05-20T23:31:06.874Z,13.80
2019-05-20T23:33:35.464Z,13.70
2019-05-20T23:36:03.964Z,13.70
2019-05-20T23:38:32.421Z,13.60
2019-05-20T23:41:01.373Z,13.50
2019-05-20T23:43:29.910Z,13.50
2019-05-20T23:45:58.414Z,13.50
2019-05-20T23:48:26.999Z,13.50
2019-05-20T23:50:55.483Z,13.50
2019-05-20T23:53:24.036Z,13.50
2019-05-20T23:55:52.504Z,13.40
2019-05-20T23:58:40.308Z,13.40
